Temperatura - Umidità - Pioggia orarie del 05-10-2022

Intensità - Direzione vento orarie del 05-10-2022

Dati orari da stazione meteo del 05-10-2022

Nome Stazione Data Ora Temperatura [°C] Umidità [%] Pioggia [mm] Intensità vento[km/h] Direzione vento [°]
Savigliano 04-10-2022 02:00 12.3 80.6 0 3.2 177
Savigliano 04-10-2022 03:00 11.9 80.4 0 0.4 182
Savigliano 04-10-2022 04:00 12 80.2 0 1.1 259
Savigliano 04-10-2022 05:00 12.5 80.4 0 0 280
Savigliano 04-10-2022 06:00 10.9 84.6 0 0 291
Savigliano 04-10-2022 07:00 9.7 85.9 0 0 223
Savigliano 04-10-2022 08:00 9.9 85.7 0 0 292
Savigliano 04-10-2022 09:00 11.4 86.1 0 0 291
Savigliano 04-10-2022 10:00 13.8 82.8 0 0 281
Savigliano 04-10-2022 11:00 14.8 81.3 0 1.4 102
Savigliano 04-10-2022 12:00 14.4 83.5 0 1.1 99
Savigliano 04-10-2022 13:00 17.7 79.9 0 0.7 96
Savigliano 04-10-2022 14:00 19.6 75.2 0 1.8 94
Savigliano 04-10-2022 15:00 19.7 69 0 1.8 84
Savigliano 04-10-2022 16:00 22 61.7 0 1.1 221
Savigliano 04-10-2022 17:00 21.8 61.1 0 0.4 275
Savigliano 04-10-2022 18:00 20.9 60.9 0 0 329
Savigliano 04-10-2022 19:00 19.9 64.9 0 0 296
Savigliano 04-10-2022 20:00 19.4 74.4 0 0 306
Savigliano 04-10-2022 21:00 17.8 74.6 0 0 334
Savigliano 04-10-2022 22:00 17.2 79.1 0 0 334
Savigliano 04-10-2022 23:00 16.9 81.3 0 0 335
Savigliano 05-10-2022 00:00 17.1 81.2 0 0.4 303
Savigliano 05-10-2022 01:00 17.7 82.3 0 0 299
Savigliano 05-10-2022 02:00 17.3 81.1 0 0 303
Savigliano 05-10-2022 03:00 16.6 85.6 0 0 312
Savigliano 05-10-2022 04:00 15.1 87.4 0 0.4 292
Savigliano 05-10-2022 05:00 15 86.2 0 0 293
Savigliano 05-10-2022 06:00 15 86.3 0 0 290
Savigliano 05-10-2022 07:00 14.9 86.6 0 0 290
Savigliano 05-10-2022 08:00 14.8 87.1 0 0 290
Savigliano 05-10-2022 09:00 14.9 87.2 0 0 290
Savigliano 05-10-2022 10:00 16.1 86.3 0 0 290
Savigliano 05-10-2022 11:00 17.1 88 0 0.4 296
Savigliano 05-10-2022 12:00 17.4 86.3 0 0 300
Savigliano 05-10-2022 13:00 18.4 80.8 0 0.4 244
Savigliano 04-10-2022 15:20 0 0 0 0 171
Savigliano 04-10-2022 23:40 0 0 0 0 306

Riassuntivo giornaliero del 05-10-2022